Time;durP1;ratioP1;P1;durP2;ratioP2;P2;SDS_P1;SDS_P2;PMS_P1;PMS_P2;Temp;Humidity;BMP_temperature;BMP_pressure;BME280_temperature;BME280_humidity;BME280_pressure;Samples;Min_cycle;Max_cycle;Signal;HPM_P1;HPM_P2
2022/07/11 00:00:20;;;;;;;2.90;2.53;;;;;;;;;;5053821;28;20182;-65
2022/07/11 00:02:46;;;;;;;4.80;2.83;;;;;;;;;;5035902;28;20713;-66
2022/07/11 00:05:12;;;;;;;3.00;2.70;;;;;;;;;;5035826;28;20174;-66
2022/07/11 00:07:38;;;;;;;4.60;2.70;;;;;;;;;;5053731;28;20182;-66
2022/07/11 00:10:04;;;;;;;5.30;2.97;;;;;;;;;;5053501;28;20194;-66
2022/07/11 00:12:30;;;;;;;4.17;2.77;;;;;;;;;;5035565;28;20188;-66
2022/07/11 00:14:57;;;;;;;4.57;2.97;;;;;;;;;;5053421;28;20178;-66
2022/07/11 00:17:23;;;;;;;3.50;2.57;;;;;;;;;;5053268;28;20209;-65
2022/07/11 00:19:49;;;;;;;4.67;3.33;;;;;;;;;;5053106;28;20261;-66
2022/07/11 00:22:15;;;;;;;4.37;2.87;;;;;;;;;;5035515;28;20213;-66
2022/07/11 00:24:41;;;;;;;3.93;2.50;;;;;;;;;;5053928;28;20182;-66
2022/07/11 00:27:07;;;;;;;3.20;2.90;;;;;;;;;;5053268;28;20202;-66
2022/07/11 00:29:34;;;;;;;4.03;3.10;;;;;;;;;;5053422;28;20198;-66
2022/07/11 00:32:00;;;;;;;6.00;2.70;;;;;;;;;;5054622;28;20186;-66
2022/07/11 00:34:26;;;;;;;3.40;2.40;;;;;;;;;;5053266;28;20514;-67
2022/07/11 00:36:52;;;;;;;3.83;2.43;;;;;;;;;;5053189;28;20712;-65
2022/07/11 00:39:18;;;;;;;6.00;2.80;;;;;;;;;;5053664;28;20199;-67
2022/07/11 00:41:44;;;;;;;4.80;2.70;;;;;;;;;;5053277;28;20252;-66
2022/07/11 00:44:10;;;;;;;6.83;2.70;;;;;;;;;;5053105;28;20174;-66
2022/07/11 00:46:36;;;;;;;3.63;2.90;;;;;;;;;;5052952;28;20217;-66
2022/07/11 00:49:03;;;;;;;2.73;2.40;;;;;;;;;;5052849;28;20225;-66
2022/07/11 00:51:29;;;;;;;4.03;2.67;;;;;;;;;;5053001;28;20186;-65
2022/07/11 00:53:57;;;;;;;4.50;2.60;;;;;;;;;;5053187;28;20240;-66
2022/07/11 00:56:24;;;;;;;3.50;2.30;;;;;;;;;;5053789;28;20224;-66
2022/07/11 00:58:50;;;;;;;3.63;2.90;;;;;;;;;;5057184;28;20674;-66
2022/07/11 01:01:16;;;;;;;4.03;2.40;;;;;;;;;;5039023;28;20214;-65
2022/07/11 01:03:42;;;;;;;5.00;2.63;;;;;;;;;;5057517;28;20177;-65
2022/07/11 01:06:09;;;;;;;4.83;2.70;;;;;;;;;;5038843;28;20181;-66
2022/07/11 01:08:35;;;;;;;3.50;2.63;;;;;;;;;;5056739;28;20202;-66
2022/07/11 01:11:02;;;;;;;5.13;2.83;;;;;;;;;;5038852;28;20182;-65
2022/07/11 01:13:28;;;;;;;4.93;2.60;;;;;;;;;;5056997;28;20193;-66
2022/07/11 01:16:09;;;;;;;3.53;2.70;;;;;;;;;;5056603;28;20182;-66
2022/07/11 01:18:35;;;;;;;7.43;2.97;;;;;;;;;;5056632;28;20670;-66
2022/07/11 01:21:03;;;;;;;3.13;2.73;;;;;;;;;;5056489;28;20298;-65
2022/07/11 01:23:29;;;;;;;3.33;2.60;;;;;;;;;;5056962;28;20175;-66
2022/07/11 01:25:55;;;;;;;4.13;2.53;;;;;;;;;;5056530;28;20186;-66
2022/07/11 01:28:21;;;;;;;2.97;2.70;;;;;;;;;;5056352;28;20277;-65
2022/07/11 01:30:47;;;;;;;5.00;2.90;;;;;;;;;;5056357;28;20269;-66
2022/07/11 01:33:13;;;;;;;3.67;3.23;;;;;;;;;;5056314;28;20229;-66
2022/07/11 01:35:39;;;;;;;3.00;2.70;;;;;;;;;;5056253;28;20179;-63
2022/07/11 01:38:05;;;;;;;4.23;3.00;;;;;;;;;;5056634;28;20275;-63
2022/07/11 01:40:31;;;;;;;6.97;3.17;;;;;;;;;;5056769;28;20247;-66
2022/07/11 01:42:57;;;;;;;6.07;3.10;;;;;;;;;;5038325;28;20204;-64
2022/07/11 01:45:23;;;;;;;4.27;2.80;;;;;;;;;;5056468;28;20187;-64
2022/07/11 01:47:49;;;;;;;4.47;2.90;;;;;;;;;;5056053;28;20175;-64
2022/07/11 01:50:15;;;;;;;7.73;3.30;;;;;;;;;;5056356;28;20178;-64
2022/07/11 01:52:41;;;;;;;4.63;2.60;;;;;;;;;;5055895;28;20178;-64
2022/07/11 01:55:07;;;;;;;4.27;3.13;;;;;;;;;;5055974;28;20178;-64
2022/07/11 01:57:33;;;;;;;4.20;2.57;;;;;;;;;;5038009;28;20278;-64
2022/07/11 01:59:59;;;;;;;5.27;3.03;;;;;;;;;;5055839;28;20690;-64
2022/07/11 02:02:25;;;;;;;3.87;2.83;;;;;;;;;;5055771;28;20686;-64
2022/07/11 02:04:51;;;;;;;3.33;2.93;;;;;;;;;;5055792;28;20183;-65
2022/07/11 02:08:11;;;;;;;4.73;2.73;;;;;;;;;;5055603;28;20269;-64
2022/07/11 02:10:03;;;;;;;3.67;2.87;;;;;;;;;;5055495;28;20407;-63
2022/07/11 02:12:29;;;;;;;5.93;2.60;;;;;;;;;;5037804;28;20281;-66
2022/07/11 02:14:55;;;;;;;3.30;2.73;;;;;;;;;;5037788;28;20649;-66
2022/07/11 02:17:21;;;;;;;4.17;2.70;;;;;;;;;;5038288;28;20558;-65
2022/07/11 02:19:47;;;;;;;5.33;2.80;;;;;;;;;;5037535;28;20221;-65
2022/07/11 02:22:15;;;;;;;7.50;3.10;;;;;;;;;;5055586;28;20206;-65
2022/07/11 02:24:41;;;;;;;5.00;2.73;;;;;;;;;;5055420;28;20201;-66
2022/07/11 02:27:06;;;;;;;5.67;3.00;;;;;;;;;;5037438;28;20582;-65
2022/07/11 02:29:32;;;;;;;3.40;2.80;;;;;;;;;;5055252;28;20202;-65
2022/07/11 02:31:59;;;;;;;3.80;2.90;;;;;;;;;;5055313;28;20265;-65
2022/07/11 02:34:25;;;;;;;3.80;2.40;;;;;;;;;;5055331;28;20257;-65
2022/07/11 02:36:51;;;;;;;3.57;2.87;;;;;;;;;;5055894;28;20281;-65
2022/07/11 02:39:17;;;;;;;4.17;2.90;;;;;;;;;;5055053;28;20209;-65
2022/07/11 02:41:43;;;;;;;8.40;3.33;;;;;;;;;;5054968;28;20202;-65
2022/07/11 02:44:09;;;;;;;3.47;2.73;;;;;;;;;;5055248;28;20543;-65
2022/07/11 02:46:35;;;;;;;3.97;2.77;;;;;;;;;;5055054;28;20677;-65
2022/07/11 02:49:00;;;;;;;4.70;2.90;;;;;;;;;;5036977;28;20618;-65
2022/07/11 02:51:26;;;;;;;9.77;3.00;;;;;;;;;;5036982;28;20175;-65
2022/07/11 02:53:52;;;;;;;6.07;2.80;;;;;;;;;;5054796;28;20179;-65
2022/07/11 02:56:18;;;;;;;4.23;3.03;;;;;;;;;;5054699;28;20175;-65
2022/07/11 02:58:44;;;;;;;5.17;3.17;;;;;;;;;;5054687;28;20199;-64
2022/07/11 03:01:10;;;;;;;3.53;2.70;;;;;;;;;;5054879;28;20732;-65
2022/07/11 03:03:36;;;;;;;3.87;2.90;;;;;;;;;;5054649;28;20182;-65
2022/07/11 03:06:02;;;;;;;2.73;2.40;;;;;;;;;;5037206;28;20183;-65
2022/07/11 03:08:28;;;;;;;4.20;2.90;;;;;;;;;;5054422;28;20264;-64
2022/07/11 03:10:54;;;;;;;3.33;2.17;;;;;;;;;;5036620;28;20182;-65
2022/07/11 03:13:20;;;;;;;2.60;1.73;;;;;;;;;;5036568;28;20222;-64
2022/07/11 03:15:46;;;;;;;1.63;1.53;;;;;;;;;;5054742;28;20201;-64
2022/07/11 03:18:12;;;;;;;2.33;1.60;;;;;;;;;;5054186;28;20272;-65
2022/07/11 03:20:38;;;;;;;1.97;1.60;;;;;;;;;;5053894;28;20182;-65
2022/07/11 03:23:04;;;;;;;2.20;1.30;;;;;;;;;;5054674;28;20178;-64
2022/07/11 03:25:30;;;;;;;3.00;1.40;;;;;;;;;;5054283;28;20210;-65
2022/07/11 03:27:55;;;;;;;1.30;1.20;;;;;;;;;;5054431;28;20179;-65
2022/07/11 03:30:21;;;;;;;1.50;1.40;;;;;;;;;;5054702;28;20179;-65
2022/07/11 03:32:47;;;;;;;1.90;1.50;;;;;;;;;;5054647;28;20635;-65
2022/07/11 03:37:58;;;;;;;2.33;1.30;;;;;;;;;;5054405;28;20170;-65
2022/07/11 03:40:24;;;;;;;1.40;1.30;;;;;;;;;;5053962;28;20183;-65
2022/07/11 03:42:50;;;;;;;3.13;1.03;;;;;;;;;;5054271;28;20182;-65
2022/07/11 03:45:18;;;;;;;1.10;1.10;;;;;;;;;;5036102;28;20171;-65
2022/07/11 03:47:44;;;;;;;1.00;1.00;;;;;;;;;;5054358;28;20228;-66
2022/07/11 03:50:10;;;;;;;1.07;1.00;;;;;;;;;;5053822;28;20698;-65
2022/07/11 03:52:35;;;;;;;0.90;0.90;;;;;;;;;;5053741;28;20554;-65
2022/07/11 03:55:01;;;;;;;1.00;1.00;;;;;;;;;;5035755;28;20282;-65
2022/07/11 03:57:27;;;;;;;1.00;1.00;;;;;;;;;;5053752;28;20178;-65
2022/07/11 03:59:53;;;;;;;1.20;1.20;;;;;;;;;;5053551;28;20209;-65
2022/07/11 04:02:19;;;;;;;1.23;1.13;;;;;;;;;;5035602;28;20202;-65
2022/07/11 04:04:45;;;;;;;1.00;1.00;;;;;;;;;;5035835;28;20182;-65
2022/07/11 04:07:11;;;;;;;1.27;1.20;;;;;;;;;;5054168;28;20222;-65
2022/07/11 04:09:37;;;;;;;1.00;1.00;;;;;;;;;;5053530;28;20194;-64
2022/07/11 04:12:03;;;;;;;1.13;1.03;;;;;;;;;;5035872;28;20194;-65
2022/07/11 04:14:29;;;;;;;1.07;1.07;;;;;;;;;;5036026;28;20186;-64
2022/07/11 04:16:55;;;;;;;1.33;1.00;;;;;;;;;;5053764;28;20660;-63
2022/07/11 04:19:23;;;;;;;1.13;0.90;;;;;;;;;;5035561;28;20217;-63
2022/07/11 04:21:49;;;;;;;1.07;1.07;;;;;;;;;;5053793;28;20198;-63
2022/07/11 04:24:15;;;;;;;1.13;1.07;;;;;;;;;;5035837;28;20178;-63
2022/07/11 04:26:42;;;;;;;0.97;0.97;;;;;;;;;;5053596;28;20179;-63
2022/07/11 04:29:08;;;;;;;1.50;1.40;;;;;;;;;;5053733;28;20194;-63
2022/07/11 04:31:34;;;;;;;1.40;1.30;;;;;;;;;;5035119;28;20186;-63
2022/07/11 04:34:00;;;;;;;1.13;1.13;;;;;;;;;;5035532;28;20269;-65
2022/07/11 04:36:26;;;;;;;1.40;1.30;;;;;;;;;;5053855;28;20274;-63
2022/07/11 04:38:52;;;;;;;1.30;1.20;;;;;;;;;;5035601;28;20202;-63
2022/07/11 04:41:17;;;;;;;2.20;1.30;;;;;;;;;;5053527;28;20249;-64
2022/07/11 04:43:44;;;;;;;2.00;1.80;;;;;;;;;;5053401;28;20183;-63
2022/07/11 04:46:10;;;;;;;1.43;1.10;;;;;;;;;;5035496;28;20185;-63
2022/07/11 04:48:37;;;;;;;2.80;1.20;;;;;;;;;;5053174;28;20202;-63
2022/07/11 04:51:04;;;;;;;1.60;1.23;;;;;;;;;;5053284;28;20602;-64
2022/07/11 04:53:30;;;;;;;1.23;1.10;;;;;;;;;;5035215;28;20178;-62
2022/07/11 04:55:56;;;;;;;1.60;1.50;;;;;;;;;;5052975;28;20189;-64
2022/07/11 04:58:22;;;;;;;2.23;1.10;;;;;;;;;;5052952;28;20228;-63
2022/07/11 05:00:47;;;;;;;1.10;1.00;;;;;;;;;;5053199;28;20260;-64
2022/07/11 05:03:14;;;;;;;2.20;1.57;;;;;;;;;;5053603;28;20194;-64
2022/07/11 05:05:40;;;;;;;1.10;1.10;;;;;;;;;;5054137;28;20627;-64
2022/07/11 05:08:06;;;;;;;1.40;1.30;;;;;;;;;;5053136;28;20194;-64
2022/07/11 05:10:34;;;;;;;1.60;1.50;;;;;;;;;;5034973;28;20187;-64
2022/07/11 05:13:00;;;;;;;2.17;1.50;;;;;;;;;;5053342;28;20220;-64
2022/07/11 05:15:26;;;;;;;2.10;1.90;;;;;;;;;;5052980;28;20662;-64
2022/07/11 05:17:52;;;;;;;1.70;1.60;;;;;;;;;;5034614;28;20178;-64
2022/07/11 05:20:18;;;;;;;2.30;2.03;;;;;;;;;;5052737;28;20167;-64
2022/07/11 05:22:44;;;;;;;1.87;1.50;;;;;;;;;;5052896;28;20248;-64
2022/07/11 05:25:10;;;;;;;2.20;1.93;;;;;;;;;;5068508;23;20226;-64
2022/07/11 05:27:36;;;;;;;1.90;1.63;;;;;;;;;;5052606;28;20539;-65
2022/07/11 05:30:02;;;;;;;1.93;1.60;;;;;;;;;;5034735;28;20174;-65
2022/07/11 05:32:27;;;;;;;5.13;1.73;;;;;;;;;;5034631;28;20218;-68
2022/07/11 05:34:56;;;;;;;2.73;1.80;;;;;;;;;;5034539;28;20198;-66
2022/07/11 05:37:22;;;;;;;3.50;1.70;;;;;;;;;;5034551;28;20186;-68
2022/07/11 05:39:50;;;;;;;1.60;1.50;;;;;;;;;;5052747;28;20179;-65
2022/07/11 05:42:16;;;;;;;3.90;1.80;;;;;;;;;;5052531;28;20205;-68
2022/07/11 05:44:42;;;;;;;1.70;1.60;;;;;;;;;;5056075;28;20195;-68
2022/07/11 05:47:08;;;;;;;2.63;1.83;;;;;;;;;;5056102;28;20604;-65
2022/07/11 05:49:34;;;;;;;1.93;1.53;;;;;;;;;;5055943;28;20216;-65
2022/07/11 05:52:01;;;;;;;1.50;1.40;;;;;;;;;;5055926;28;20258;-67
2022/07/11 05:54:28;;;;;;;3.70;1.70;;;;;;;;;;5055853;28;20190;-64
2022/07/11 05:56:54;;;;;;;2.83;1.70;;;;;;;;;;5055845;28;20227;-62
2022/07/11 05:59:20;;;;;;;2.30;1.77;;;;;;;;;;5055810;28;20185;-65
2022/07/11 06:01:46;;;;;;;1.60;1.50;;;;;;;;;;5055722;28;20198;-66
2022/07/11 06:04:12;;;;;;;3.97;1.63;;;;;;;;;;5055717;28;20655;-66
2022/07/11 06:06:38;;;;;;;2.00;1.80;;;;;;;;;;5056316;28;20175;-66
2022/07/11 06:09:04;;;;;;;2.43;2.10;;;;;;;;;;5037775;28;20182;-66
2022/07/11 06:11:31;;;;;;;2.63;1.83;;;;;;;;;;5037724;28;20707;-66
2022/07/11 06:13:57;;;;;;;3.50;2.03;;;;;;;;;;5037656;28;20206;-66
2022/07/11 06:16:23;;;;;;;2.03;1.80;;;;;;;;;;5055552;28;20337;-66
2022/07/11 06:18:50;;;;;;;2.40;1.80;;;;;;;;;;5055676;28;20205;-66
2022/07/11 06:21:16;;;;;;;2.37;2.03;;;;;;;;;;5055404;28;20245;-66
2022/07/11 06:23:42;;;;;;;1.90;1.80;;;;;;;;;;5055453;28;20698;-65
2022/07/11 06:26:11;;;;;;;2.37;1.80;;;;;;;;;;5055562;28;20263;-65
2022/07/11 06:28:38;;;;;;;2.23;2.03;;;;;;;;;;5055487;28;20179;-66
2022/07/11 06:31:04;;;;;;;1.83;1.73;;;;;;;;;;5055269;28;20247;-66
2022/07/11 06:33:30;;;;;;;1.80;1.67;;;;;;;;;;5055142;28;20709;-66
2022/07/11 06:35:56;;;;;;;4.23;2.00;;;;;;;;;;5037899;28;20182;-66
2022/07/11 06:38:22;;;;;;;2.70;2.27;;;;;;;;;;5055078;28;20191;-66
2022/07/11 06:40:48;;;;;;;2.10;1.90;;;;;;;;;;5054977;28;20206;-66
2022/07/11 06:43:14;;;;;;;2.83;1.80;;;;;;;;;;5054932;28;20190;-64
2022/07/11 06:45:40;;;;;;;1.50;1.40;;;;;;;;;;5037152;28;20194;-66
2022/07/11 06:48:07;;;;;;;2.03;1.93;;;;;;;;;;5055462;28;20656;-66
2022/07/11 06:50:33;;;;;;;3.60;2.33;;;;;;;;;;5054845;28;20193;-66
2022/07/11 06:52:59;;;;;;;2.30;2.10;;;;;;;;;;5054986;28;20708;-66
2022/07/11 06:55:25;;;;;;;2.27;1.90;;;;;;;;;;5053896;28;20205;-66
2022/07/11 06:57:51;;;;;;;2.30;2.10;;;;;;;;;;5055429;28;20520;-66
2022/07/11 07:00:18;;;;;;;1.70;1.60;;;;;;;;;;5055213;28;20178;-66
2022/07/11 07:02:44;;;;;;;3.87;1.50;;;;;;;;;;5054864;28;20195;-66
2022/07/11 07:05:10;;;;;;;2.13;1.60;;;;;;;;;;5036693;28;20256;-66
2022/07/11 07:07:36;;;;;;;3.17;1.53;;;;;;;;;;5054714;28;20267;-66
2022/07/11 07:10:02;;;;;;;1.33;1.20;;;;;;;;;;5054559;28;20258;-66
2022/07/11 07:12:28;;;;;;;2.30;1.20;;;;;;;;;;5036636;28;20190;-66
2022/07/11 07:14:54;;;;;;;1.23;1.17;;;;;;;;;;5036493;28;20324;-66
2022/07/11 07:17:20;;;;;;;1.27;1.17;;;;;;;;;;5054422;28;20182;-66
2022/07/11 07:19:46;;;;;;;1.07;1.00;;;;;;;;;;5054312;28;20205;-69
2022/07/11 07:22:16;;;;;;;2.97;1.60;;;;;;;;;;5054432;28;20202;-65
2022/07/11 07:24:42;;;;;;;1.37;1.20;;;;;;;;;;5036099;28;20304;-65
2022/07/11 07:27:08;;;;;;;1.43;1.33;;;;;;;;;;5054446;28;20171;-66
2022/07/11 07:29:34;;;;;;;1.30;1.20;;;;;;;;;;5054286;28;20198;-66
2022/07/11 07:32:00;;;;;;;1.10;1.10;;;;;;;;;;5054581;28;20635;-66
2022/07/11 07:34:26;;;;;;;1.80;1.20;;;;;;;;;;5053844;28;20678;-65
2022/07/11 07:36:52;;;;;;;1.40;1.30;;;;;;;;;;5054544;28;20272;-66
2022/07/11 07:39:18;;;;;;;1.30;1.20;;;;;;;;;;5054441;28;20199;-66
2022/07/11 07:41:44;;;;;;;1.63;1.50;;;;;;;;;;5053901;28;20205;-66
2022/07/11 07:44:11;;;;;;;1.77;1.23;;;;;;;;;;5036191;28;20209;-66
2022/07/11 07:46:37;;;;;;;2.20;1.80;;;;;;;;;;5054079;28;20228;-66
2022/07/11 07:49:03;;;;;;;2.03;1.33;;;;;;;;;;5053965;28;20178;-66
2022/07/11 07:51:29;;;;;;;1.50;1.40;;;;;;;;;;5035885;28;20186;-66
2022/07/11 07:53:55;;;;;;;1.30;1.20;;;;;;;;;;5053617;28;20198;-66
2022/07/11 07:56:21;;;;;;;1.50;1.40;;;;;;;;;;5035777;28;20186;-66
2022/07/11 07:58:48;;;;;;;1.60;1.50;;;;;;;;;;5035696;28;20534;-66
2022/07/11 08:04:00;;;;;;;2.30;1.53;;;;;;;;;;5053631;28;20579;-66
2022/07/11 08:06:26;;;;;;;2.70;1.30;;;;;;;;;;5035352;28;20182;-66
2022/07/11 08:08:52;;;;;;;1.40;1.30;;;;;;;;;;5053983;28;20232;-66
2022/07/11 08:11:18;;;;;;;1.20;1.20;;;;;;;;;;5053392;28;20189;-66
2022/07/11 08:13:44;;;;;;;1.30;1.20;;;;;;;;;;5053042;28;20206;-66
2022/07/11 08:16:10;;;;;;;1.20;1.10;;;;;;;;;;5035280;28;20284;-66
2022/07/11 08:18:36;;;;;;;1.33;1.30;;;;;;;;;;5053305;28;20175;-66
2022/07/11 08:21:02;;;;;;;2.30;1.80;;;;;;;;;;5035329;28;20579;-66
2022/07/11 08:23:29;;;;;;;1.27;1.20;;;;;;;;;;5053308;28;20559;-67
2022/07/11 08:25:55;;;;;;;1.50;1.40;;;;;;;;;;5053431;28;20642;-66
2022/07/11 08:28:21;;;;;;;4.53;1.30;;;;;;;;;;5053391;28;20182;-66
2022/07/11 08:30:47;;;;;;;1.60;1.50;;;;;;;;;;5053446;28;20174;-65
2022/07/11 08:33:13;;;;;;;1.60;1.50;;;;;;;;;;5053084;28;20174;-66
2022/07/11 08:35:39;;;;;;;2.53;1.80;;;;;;;;;;5053113;28;20571;-66
2022/07/11 08:38:05;;;;;;;5.37;1.83;;;;;;;;;;5053115;28;20175;-66
2022/07/11 08:40:31;;;;;;;2.77;1.80;;;;;;;;;;5053011;28;20184;-65
2022/07/11 08:42:58;;;;;;;2.10;1.87;;;;;;;;;;5053350;28;20235;-66
2022/07/11 08:45:29;;;;;;;2.50;2.00;;;;;;;;;;5052898;28;20197;-66
2022/07/11 08:47:56;;;;;;;2.20;2.00;;;;;;;;;;5035130;28;20182;-65
2022/07/11 08:50:23;;;;;;;2.70;1.80;;;;;;;;;;5035364;28;20630;-66
2022/07/11 08:52:49;;;;;;;2.27;2.10;;;;;;;;;;5035012;28;20178;-66
2022/07/11 08:55:15;;;;;;;2.63;2.00;;;;;;;;;;5034832;28;20201;-65
2022/07/11 08:57:41;;;;;;;1.70;1.60;;;;;;;;;;5035225;28;20183;-66
2022/07/11 09:00:09;;;;;;;1.97;1.60;;;;;;;;;;5035466;28;20185;-66
2022/07/11 09:02:35;;;;;;;2.07;1.80;;;;;;;;;;5035119;28;20194;-66
2022/07/11 09:05:08;;;;;;;1.60;1.50;;;;;;;;;;5052695;28;20198;-66
2022/07/11 09:07:34;;;;;;;1.63;1.53;;;;;;;;;;5053380;28;20174;-66
2022/07/11 09:10:00;;;;;;;1.70;1.60;;;;;;;;;;5034786;28;20174;-66
2022/07/11 09:12:26;;;;;;;2.03;1.93;;;;;;;;;;5052752;28;20182;-66
2022/07/11 09:14:52;;;;;;;2.33;1.93;;;;;;;;;;5034809;28;20214;-66
2022/07/11 09:17:30;;;;;;;2.13;1.80;;;;;;;;;;5053196;28;20275;-66
2022/07/11 09:19:55;;;;;;;1.93;1.70;;;;;;;;;;5038761;28;20174;-66
2022/07/11 09:27:53;;;;;;;1.30;1.30;;;;;;;;;;5056576;28;20155;-66
2022/07/11 09:30:25;;;;;;;1.73;1.60;;;;;;;;;;5038520;28;20190;-66
2022/07/11 09:32:56;;;;;;;1.07;1.07;;;;;;;;;;5056392;28;20185;-66
2022/07/11 09:35:22;;;;;;;1.00;1.00;;;;;;;;;;5056282;28;20285;-66
2022/07/11 09:37:48;;;;;;;1.90;1.10;;;;;;;;;;5056520;28;20547;-66
2022/07/11 09:40:15;;;;;;;1.10;1.00;;;;;;;;;;5056700;28;20186;-66
2022/07/11 09:42:58;;;;;;;1.33;1.10;;;;;;;;;;5056483;28;20202;-66
2022/07/11 09:45:24;;;;;;;1.37;1.10;;;;;;;;;;5056157;28;20202;-66
2022/07/11 09:47:51;;;;;;;0.90;0.90;;;;;;;;;;5038227;28;20178;-66
2022/07/11 09:50:18;;;;;;;1.10;1.00;;;;;;;;;;5038145;28;20217;-66
2022/07/11 09:52:57;;;;;;;2.10;1.17;;;;;;;;;;5056357;28;20262;-66
2022/07/11 09:55:25;;;;;;;1.30;1.20;;;;;;;;;;5038111;28;20209;-66
2022/07/11 09:57:50;;;;;;;0.90;0.90;;;;;;;;;;5055937;28;20210;-66
2022/07/11 10:00:17;;;;;;;1.20;1.20;;;;;;;;;;5055988;28;20237;-67
2022/07/11 10:02:43;;;;;;;1.20;1.10;;;;;;;;;;5055819;28;20389;-66
2022/07/11 10:05:09;;;;;;;2.70;1.30;;;;;;;;;;5055754;28;20202;-66
2022/07/11 10:07:35;;;;;;;1.27;1.20;;;;;;;;;;5055782;28;20704;-66
2022/07/11 10:10:02;;;;;;;1.10;1.10;;;;;;;;;;5055815;28;20224;-66
2022/07/11 10:12:29;;;;;;;1.03;1.03;;;;;;;;;;5037854;28;20186;-66
2022/07/11 10:14:56;;;;;;;0.90;0.90;;;;;;;;;;5037636;28;20219;-66
2022/07/11 10:17:37;;;;;;;0.90;0.90;;;;;;;;;;5055585;28;20183;-65
2022/07/11 10:20:12;;;;;;;1.13;1.03;;;;;;;;;;5037661;28;20175;-66
2022/07/11 10:22:42;;;;;;;0.80;0.80;;;;;;;;;;5055404;28;20198;-65
2022/07/11 10:25:17;;;;;;;0.80;0.80;;;;;;;;;;5055231;28;20248;-66
2022/07/11 10:28:02;;;;;;;0.87;0.87;;;;;;;;;;5055683;28;20619;-66
2022/07/11 10:30:41;;;;;;;1.20;1.10;;;;;;;;;;5055330;28;20181;-66
2022/07/11 10:33:07;;;;;;;0.80;0.80;;;;;;;;;;5055636;28;20186;-66
2022/07/11 10:35:33;;;;;;;2.73;1.00;;;;;;;;;;5055155;28;20205;-65
2022/07/11 10:38:05;;;;;;;1.10;1.10;;;;;;;;;;5037237;28;20178;-66
2022/07/11 10:40:47;;;;;;;1.40;1.30;;;;;;;;;;5055355;28;20163;-65
2022/07/11 10:43:14;;;;;;;1.47;1.37;;;;;;;;;;5055121;28;20186;-66
2022/07/11 10:46:00;;;;;;;1.63;1.37;;;;;;;;;;5054961;28;20218;-66
2022/07/11 10:48:27;;;;;;;1.33;1.23;;;;;;;;;;5055010;28;20178;-66
2022/07/11 10:50:54;;;;;;;1.30;1.20;;;;;;;;;;5055281;28;20259;-66
2022/07/11 10:53:23;;;;;;;1.30;1.20;;;;;;;;;;5054821;28;20202;-66
2022/07/11 10:55:49;;;;;;;2.73;1.10;;;;;;;;;;5036943;28;20182;-66
2022/07/11 10:58:24;;;;;;;1.30;1.20;;;;;;;;;;5054858;28;20171;-66
2022/07/11 11:01:09;;;;;;;1.17;1.07;;;;;;;;;;5054952;28;20178;-66
2022/07/11 11:03:35;;;;;;;1.40;1.30;;;;;;;;;;5036842;28;20308;-66
2022/07/11 11:06:01;;;;;;;1.03;0.97;;;;;;;;;;5054664;28;20261;-66
2022/07/11 11:10:59;;;;;;;1.20;1.10;;;;;;;;;;5054496;28;20555;-66
2022/07/11 11:13:26;;;;;;;1.73;1.00;;;;;;;;;;5054711;28;20178;-66
2022/07/11 11:15:53;;;;;;;1.23;1.00;;;;;;;;;;5054689;28;20544;-66
2022/07/11 11:18:23;;;;;;;1.00;1.00;;;;;;;;;;5054591;28;20175;-67
2022/07/11 11:21:06;;;;;;;1.57;1.10;;;;;;;;;;5036396;28;20713;-66
2022/07/11 11:23:33;;;;;;;1.10;1.10;;;;;;;;;;5054305;28;20186;-66
2022/07/11 11:26:09;;;;;;;0.90;0.90;;;;;;;;;;5054297;28;20163;-66
2022/07/11 11:28:35;;;;;;;2.17;1.00;;;;;;;;;;5036318;28;20182;-65
2022/07/11 11:31:07;;;;;;;1.30;1.20;;;;;;;;;;5036307;28;20183;-67
2022/07/11 11:33:34;;;;;;;1.20;1.10;;;;;;;;;;5054315;28;20182;-66
2022/07/11 11:36:04;;;;;;;0.93;0.90;;;;;;;;;;5036146;28;20632;-66
2022/07/11 11:38:33;;;;;;;1.10;0.90;;;;;;;;;;5053927;28;20229;-66
2022/07/11 11:40:59;;;;;;;1.10;1.10;;;;;;;;;;5053264;28;20697;-66
2022/07/11 11:43:25;;;;;;;1.10;1.00;;;;;;;;;;5054155;28;20235;-66
2022/07/11 11:45:52;;;;;;;1.03;1.00;;;;;;;;;;5053995;28;20187;-66
2022/07/11 11:48:28;;;;;;;2.23;1.00;;;;;;;;;;5054198;28;20601;-66
2022/07/11 11:51:01;;;;;;;1.00;1.00;;;;;;;;;;5036011;28;20224;-66
2022/07/11 11:53:27;;;;;;;2.77;1.10;;;;;;;;;;5054232;28;20186;-66
2022/07/11 11:55:53;;;;;;;1.10;1.00;;;;;;;;;;5053713;28;20217;-66
2022/07/11 11:58:19;;;;;;;1.10;1.10;;;;;;;;;;5053813;28;20183;-66
2022/07/11 12:00:54;;;;;;;3.97;1.00;;;;;;;;;;5054218;28;20526;-66
2022/07/11 12:03:20;;;;;;;1.20;1.10;;;;;;;;;;5053576;28;20158;-66
2022/07/11 12:05:53;;;;;;;2.07;1.00;;;;;;;;;;5035773;28;20189;-66
2022/07/11 12:08:26;;;;;;;1.37;1.10;;;;;;;;;;5053493;28;20171;-66
2022/07/11 12:10:55;;;;;;;1.00;1.00;;;;;;;;;;5053576;28;20181;-66
2022/07/11 12:13:22;;;;;;;1.10;1.10;;;;;;;;;;5053289;28;20185;-65
2022/07/11 12:18:39;;;;;;;1.73;1.40;;;;;;;;;;5053811;28;20182;-66
2022/07/11 12:21:12;;;;;;;1.40;1.30;;;;;;;;;;5053109;28;20198;-66
2022/07/11 12:23:38;;;;;;;1.70;1.60;;;;;;;;;;5053654;28;20656;-66
2022/07/11 12:26:04;;;;;;;1.60;1.50;;;;;;;;;;5053469;28;20653;-66
2022/07/11 12:28:30;;;;;;;1.60;1.50;;;;;;;;;;5053127;28;20178;-66
2022/07/11 12:30:56;;;;;;;2.40;1.40;;;;;;;;;;5070063;22;20241;-66
2022/07/11 12:33:25;;;;;;;1.40;1.30;;;;;;;;;;5035426;28;20179;-65
2022/07/11 12:35:54;;;;;;;2.07;1.50;;;;;;;;;;5035495;28;20170;-66
2022/07/11 12:38:22;;;;;;;1.40;1.30;;;;;;;;;;5035503;28;20182;-66
2022/07/11 12:41:04;;;;;;;1.40;1.30;;;;;;;;;;5053224;28;20195;-67
2022/07/11 12:46:29;;;;;;;1.70;1.60;;;;;;;;;;5053531;28;20174;-65
2022/07/11 12:48:55;;;;;;;1.60;1.47;;;;;;;;;;5035300;28;20686;-66
2022/07/11 12:51:34;;;;;;;1.33;1.33;;;;;;;;;;5053044;28;20689;-66
2022/07/11 12:54:01;;;;;;;1.23;1.20;;;;;;;;;;5056414;28;20162;-66
2022/07/11 12:56:27;;;;;;;1.57;1.47;;;;;;;;;;5039113;28;20182;-66
2022/07/11 12:58:53;;;;;;;1.40;1.30;;;;;;;;;;5057050;28;20182;-66
2022/07/11 13:01:19;;;;;;;1.37;1.27;;;;;;;;;;5057262;28;20617;-65
2022/07/11 13:03:46;;;;;;;1.50;1.40;;;;;;;;;;5056828;28;20724;-64
2022/07/11 13:06:11;;;;;;;1.70;1.37;;;;;;;;;;5056825;28;20225;-64
2022/07/11 13:08:47;;;;;;;1.47;1.30;;;;;;;;;;5056600;28;20659;-65
2022/07/11 13:11:14;;;;;;;1.47;1.20;;;;;;;;;;5056498;28;20205;-65
2022/07/11 13:13:43;;;;;;;1.47;1.37;;;;;;;;;;5056648;28;20674;-65
2022/07/11 13:16:12;;;;;;;1.40;1.30;;;;;;;;;;5056837;28;20611;-65
2022/07/11 13:18:38;;;;;;;1.40;1.30;;;;;;;;;;5038592;28;20185;-65
2022/07/11 13:21:04;;;;;;;2.43;1.40;;;;;;;;;;5056226;28;20206;-65
2022/07/11 13:23:31;;;;;;;1.40;1.30;;;;;;;;;;5056330;28;20174;-65
2022/07/11 13:25:57;;;;;;;1.60;1.50;;;;;;;;;;5056335;28;20171;-65
2022/07/11 13:28:23;;;;;;;3.00;1.50;;;;;;;;;;5038457;28;20642;-63
2022/07/11 13:30:50;;;;;;;1.40;1.30;;;;;;;;;;5038104;28;20309;-64
2022/07/11 13:33:16;;;;;;;1.40;1.30;;;;;;;;;;5038199;28;20646;-65
2022/07/11 13:35:42;;;;;;;1.50;1.40;;;;;;;;;;5056652;28;20177;-65
2022/07/11 13:38:08;;;;;;;2.20;1.50;;;;;;;;;;5038332;28;20549;-64
2022/07/11 13:40:34;;;;;;;2.30;2.20;;;;;;;;;;5055987;28;20194;-65
2022/07/11 13:43:02;;;;;;;2.73;2.53;;;;;;;;;;5056335;28;20209;-65
2022/07/11 13:45:28;;;;;;;2.27;2.07;;;;;;;;;;5056243;28;20262;-65
2022/07/11 13:47:54;;;;;;;2.00;1.90;;;;;;;;;;5056304;28;20231;-65
2022/07/11 13:50:22;;;;;;;2.00;1.90;;;;;;;;;;5038206;28;20199;-63
2022/07/11 13:52:49;;;;;;;1.80;1.70;;;;;;;;;;5055999;28;20185;-65
2022/07/11 13:55:16;;;;;;;2.17;2.03;;;;;;;;;;5038103;28;20197;-65
2022/07/11 13:57:42;;;;;;;2.37;2.17;;;;;;;;;;5056080;28;20174;-65
2022/07/11 14:00:08;;;;;;;2.20;2.03;;;;;;;;;;5037878;28;20678;-63
2022/07/11 14:02:34;;;;;;;1.60;1.50;;;;;;;;;;5037980;28;20583;-63
2022/07/11 14:05:00;;;;;;;1.60;1.50;;;;;;;;;;5055529;28;20220;-64
2022/07/11 14:07:26;;;;;;;1.60;1.50;;;;;;;;;;5037968;28;20178;-65
2022/07/11 14:09:53;;;;;;;1.70;1.60;;;;;;;;;;5037803;28;20194;-64
2022/07/11 14:12:19;;;;;;;1.87;1.50;;;;;;;;;;5055901;28;20178;-65
2022/07/11 14:14:45;;;;;;;2.37;1.40;;;;;;;;;;5055830;28;20244;-65
2022/07/11 14:17:11;;;;;;;1.70;1.60;;;;;;;;;;5055956;28;20178;-65
2022/07/11 14:19:38;;;;;;;2.17;1.30;;;;;;;;;;5055548;28;20203;-64
2022/07/11 14:22:05;;;;;;;4.10;1.57;;;;;;;;;;5037870;28;20210;-65
2022/07/11 14:24:32;;;;;;;1.40;1.30;;;;;;;;;;5037705;28;20556;-65
2022/07/11 14:26:58;;;;;;;1.43;1.33;;;;;;;;;;5055382;28;20206;-66
2022/07/11 14:29:24;;;;;;;2.10;1.30;;;;;;;;;;5037395;28;20213;-66
2022/07/11 14:31:54;;;;;;;1.40;1.30;;;;;;;;;;5055671;28;20174;-66
2022/07/11 14:34:23;;;;;;;1.50;1.40;;;;;;;;;;5055615;28;20557;-65
2022/07/11 14:36:49;;;;;;;1.40;1.30;;;;;;;;;;5055352;28;20178;-66
2022/07/11 14:39:15;;;;;;;1.53;1.43;;;;;;;;;;5037274;28;20562;-65
2022/07/11 14:41:42;;;;;;;1.30;1.10;;;;;;;;;;5055166;28;20721;-67
2022/07/11 14:44:08;;;;;;;1.50;1.40;;;;;;;;;;5037488;28;20231;-66
2022/07/11 14:46:34;;;;;;;1.70;1.40;;;;;;;;;;5055569;28;20175;-67
2022/07/11 14:49:00;;;;;;;1.20;1.10;;;;;;;;;;5037742;28;20209;-65
2022/07/11 14:51:27;;;;;;;1.30;1.20;;;;;;;;;;5055366;28;20198;-67
2022/07/11 14:53:53;;;;;;;1.40;1.30;;;;;;;;;;5055248;28;20663;-66
2022/07/11 14:56:19;;;;;;;3.80;1.43;;;;;;;;;;5037214;28;20214;-65
2022/07/11 14:58:44;;;;;;;1.03;1.03;;;;;;;;;;5055489;28;20271;-65
2022/07/11 15:01:10;;;;;;;1.50;1.40;;;;;;;;;;5037226;28;20636;-65